Time;durP1;ratioP1;P1;durP2;ratioP2;P2;SDS_P1;SDS_P2;PMS_P1;PMS_P2;Temp;Humidity;BMP_temperature;BMP_pressure;BME280_temperature;BME280_humidity;BME280_pressure;Samples;Min_cycle;Max_cycle;Signal;HPM_P1;HPM_P2
2022/01/13 00:00:18;;;;;;;63.08;32.03;;;;;;;1.65;100.00;103328.94;837019;23;837;-53
2022/01/13 00:00:38;;;;;;;60.40;31.20;;;;;;;1.63;100.00;103321.06;840142;23;950;-54
2022/01/13 00:00:59;;;;;;;59.17;31.00;;;;;;;1.62;100.00;103323.53;840449;23;1053;-51
2022/01/13 00:01:27;;;;;;;60.65;31.70;;;;;;;1.60;100.00;103326.00;840040;23;947;-54
2022/01/13 00:01:49;;;;;;;58.92;31.95;;;;;;;1.62;100.00;103324.47;839424;23;804;-56
2022/01/13 00:02:11;;;;;;;60.85;32.35;;;;;;;1.61;100.00;103324.34;837770;23;4580;-52
2022/01/13 00:02:34;;;;;;;62.20;31.67;;;;;;;1.58;100.00;103327.59;839659;23;955;-52
2022/01/13 00:02:55;;;;;;;61.13;31.42;;;;;;;1.56;100.00;103321.41;836183;23;951;-52
2022/01/13 00:03:15;;;;;;;59.60;31.27;;;;;;;1.55;100.00;103321.28;836382;23;782;-53
2022/01/13 00:03:35;;;;;;;60.05;31.33;;;;;;;1.55;100.00;103322.19;835792;23;733;-53
2022/01/13 00:03:58;;;;;;;61.27;31.50;;;;;;;1.55;100.00;103323.88;834164;23;1509;-55
2022/01/13 00:04:18;;;;;;;59.03;31.17;;;;;;;1.53;100.00;103322.06;835908;23;766;-53
2022/01/13 00:04:39;;;;;;;60.57;32.03;;;;;;;1.51;100.00;103315.91;835896;23;757;-52
2022/01/13 00:04:59;;;;;;;65.15;32.10;;;;;;;1.53;100.00;103319.50;837566;23;4316;-55
2022/01/13 00:05:26;;;;;;;60.03;30.97;;;;;;;1.53;100.00;103318.59;837612;23;1092;-53
2022/01/13 00:05:47;;;;;;;59.90;32.05;;;;;;;1.53;100.00;103322.06;839335;23;1598;-54
2022/01/13 00:06:07;;;;;;;61.70;32.17;;;;;;;1.54;100.00;103323.00;839630;23;844;-54
2022/01/13 00:06:27;;;;;;;59.30;31.07;;;;;;;1.53;100.00;103316.03;839501;23;701;-54
2022/01/13 00:06:48;;;;;;;57.97;29.88;;;;;;;1.55;100.00;103321.28;839870;23;788;-53
2022/01/13 00:07:10;;;;;;;62.07;30.97;;;;;;;1.55;100.00;103322.19;840071;23;994;-52
2022/01/13 00:07:30;;;;;;;58.50;30.88;;;;;;;1.55;100.00;103324.75;834435;23;1325;-53
2022/01/13 00:07:51;;;;;;;57.58;31.13;;;;;;;1.54;100.00;103320.41;833965;23;4317;-51
2022/01/13 00:08:11;;;;;;;60.93;31.40;;;;;;;1.52;100.00;103322.88;835623;23;876;-53
2022/01/13 00:08:32;;;;;;;61.67;31.10;;;;;;;1.52;100.00;103321.97;838071;23;1745;-51
2022/01/13 00:08:52;;;;;;;58.83;30.70;;;;;;;1.50;100.00;103321.84;840239;23;879;-55
2022/01/13 00:09:14;;;;;;;59.20;31.35;;;;;;;1.51;100.00;103322.75;840803;23;781;-53
2022/01/13 00:09:35;;;;;;;59.28;31.00;;;;;;;1.51;100.00;103322.75;839688;23;852;-53
2022/01/13 00:09:55;;;;;;;61.13;31.48;;;;;;;1.51;100.00;103325.34;839807;23;745;-54
2022/01/13 00:10:15;;;;;;;61.50;31.97;;;;;;;1.50;100.00;103319.28;839191;23;940;-53
2022/01/13 00:10:36;;;;;;;61.40;31.55;;;;;;;1.49;100.00;103322.63;835899;23;812;-52
2022/01/13 00:10:56;;;;;;;60.73;30.30;;;;;;;1.52;100.00;103327.13;835328;23;4214;-57
2022/01/13 00:11:17;;;;;;;57.63;29.15;;;;;;;1.63;100.00;103323.66;836391;23;889;-52
2022/01/13 00:11:38;;;;;;;56.47;28.93;;;;;;;1.68;100.00;103324.91;839412;23;781;-55
2022/01/13 00:11:58;;;;;;;53.40;28.45;;;;;;;1.70;100.00;103322.44;839289;23;1947;-55
2022/01/13 00:12:20;;;;;;;50.85;27.38;;;;;;;1.69;100.00;103329.28;836282;23;781;-56
2022/01/13 00:12:43;;;;;;;52.40;28.95;;;;;;;1.67;100.00;103328.25;840117;23;785;-57
2022/01/13 00:13:07;;;;;;;51.88;28.77;;;;;;;1.64;100.00;103328.03;834838;23;2162;-52
2022/01/13 00:13:33;;;;;;;54.38;28.85;;;;;;;1.63;100.00;103327.94;835304;23;971;-53
2022/01/13 00:14:55;;;;;;;56.08;29.00;;;;;;;1.58;100.00;103327.59;831586;23;1367;-52
2022/01/13 00:18:14;;;;;;;58.85;28.92;;;;;;;1.50;100.00;103326.13;839922;23;1127;-52
2022/01/13 00:18:41;;;;;;;56.80;28.60;;;;;;;1.50;100.00;103326.13;839886;23;1199;-52
2022/01/13 00:19:20;;;;;;;55.63;28.83;;;;;;;1.51;100.00;103330.50;834818;23;942;-52
2022/01/13 00:20:28;;;;;;;58.60;28.55;;;;;;;1.50;100.00;103327.00;834164;23;4285;-53
2022/01/13 00:21:29;;;;;;;51.47;28.33;;;;;;;1.52;100.00;103332.28;839955;23;903;-55
2022/01/13 00:21:57;;;;;;;52.70;28.40;;;;;;;1.54;100.00;103328.16;840263;23;911;-54
2022/01/13 00:22:50;;;;;;;52.20;26.45;;;;;;;1.53;100.00;103328.91;835729;23;855;-52
2022/01/13 00:23:53;;;;;;;51.80;26.95;;;;;;;1.51;100.00;103333.97;834822;23;840;-51
2022/01/13 00:24:14;;;;;;;49.35;27.08;;;;;;;1.50;100.00;103328.69;837222;23;1379;-53
2022/01/13 00:24:34;;;;;;;52.42;27.40;;;;;;;1.50;100.00;103329.59;838711;23;1206;-52
2022/01/13 00:24:59;;;;;;;52.85;27.58;;;;;;;1.49;100.00;103332.94;840130;23;906;-51
2022/01/13 00:25:21;;;;;;;52.38;27.42;;;;;;;1.48;100.00;103335.41;839967;23;779;-55
2022/01/13 00:25:42;;;;;;;52.22;26.30;;;;;;;1.48;100.00;103336.31;832854;23;1300;-53
2022/01/13 00:26:08;;;;;;;51.83;26.30;;;;;;;1.47;100.00;103334.50;831336;23;4275;-55
2022/01/13 00:26:30;;;;;;;49.08;26.60;;;;;;;1.48;100.00;103343.13;831779;23;840;-52
2022/01/13 00:26:53;;;;;;;50.97;25.67;;;;;;;1.48;100.00;103344.06;826136;23;1664;-53
2022/01/13 00:27:14;;;;;;;50.97;26.17;;;;;;;1.54;100.00;103341.03;830692;23;1461;-51
2022/01/13 00:27:38;;;;;;;46.47;24.42;;;;;;;1.60;100.00;103338.91;833067;23;791;-52
2022/01/13 00:28:01;;;;;;;46.53;25.08;;;;;;;1.59;100.00;103337.09;836216;23;951;-54
2022/01/13 00:28:24;;;;;;;46.28;25.25;;;;;;;1.59;100.00;103343.94;834284;23;987;-56
2022/01/13 00:28:48;;;;;;;47.38;24.65;;;;;;;1.58;100.00;103335.31;833120;23;1340;-54
2022/01/13 00:29:09;;;;;;;46.45;24.83;;;;;;;1.56;100.00;103343.72;831051;23;6393;-54
2022/01/13 00:29:31;;;;;;;43.47;24.38;;;;;;;1.56;100.00;103343.72;832164;23;809;-52
2022/01/13 00:29:55;;;;;;;44.60;24.10;;;;;;;1.52;100.00;103343.50;832181;23;990;-52
2022/01/13 00:30:17;;;;;;;48.28;24.58;;;;;;;1.52;100.00;103342.59;833953;23;1197;-53
2022/01/13 00:30:38;;;;;;;50.80;25.55;;;;;;;1.51;100.00;103345.97;835584;23;1062;-56
2022/01/13 00:31:03;;;;;;;48.13;25.70;;;;;;;1.51;100.00;103345.97;835972;23;971;-53
2022/01/13 00:31:31;;;;;;;46.28;24.60;;;;;;;1.50;100.00;103350.22;839623;23;951;-52
2022/01/13 00:31:52;;;;;;;46.65;24.75;;;;;;;1.49;100.00;103344.94;838590;23;4312;-54
2022/01/13 00:32:14;;;;;;;46.85;24.67;;;;;;;1.48;100.00;103350.88;834736;23;869;-52
2022/01/13 00:32:35;;;;;;;50.55;25.38;;;;;;;1.47;100.00;103343.94;835912;23;923;-53
2022/01/13 00:32:55;;;;;;;50.70;26.25;;;;;;;1.47;100.00;103355.13;835700;23;585;-51
2022/01/13 00:33:17;;;;;;;49.33;25.17;;;;;;;1.46;100.00;103347.28;834724;23;1527;-52
2022/01/13 00:33:44;;;;;;;48.25;25.77;;;;;;;1.46;100.00;103347.28;836103;23;907;-55
2022/01/13 00:34:06;;;;;;;46.72;25.17;;;;;;;1.45;100.00;103345.50;833021;23;1331;-52
2022/01/13 00:34:26;;;;;;;47.15;25.00;;;;;;;1.44;100.00;103346.25;835653;23;808;-52
2022/01/13 00:34:47;;;;;;;46.05;24.75;;;;;;;1.43;100.00;103350.53;824309;24;826;-52
2022/01/13 00:35:08;;;;;;;46.57;25.87;;;;;;;1.43;100.00;103352.22;822141;23;4234;-54
2022/01/13 00:35:28;;;;;;;46.17;25.55;;;;;;;1.43;100.00;103342.78;824119;24;1072;-52
2022/01/13 00:35:49;;;;;;;46.97;24.73;;;;;;;1.42;100.00;103345.25;825660;23;916;-51
2022/01/13 00:36:10;;;;;;;48.78;25.13;;;;;;;1.43;100.00;103354.81;827250;23;879;-54
2022/01/13 00:36:36;;;;;;;45.90;24.45;;;;;;;1.45;100.00;103350.66;829263;23;786;-53
2022/01/13 00:36:59;;;;;;;45.60;24.48;;;;;;;1.46;100.00;103347.28;835524;23;1062;-55
2022/01/13 00:37:20;;;;;;;44.95;25.17;;;;;;;1.44;100.00;103349.75;836166;23;824;-53
2022/01/13 00:37:41;;;;;;;45.17;24.88;;;;;;;1.52;100.00;103342.59;832431;23;944;-52
2022/01/13 00:38:02;;;;;;;47.33;24.20;;;;;;;1.65;100.00;103350.47;832602;23;4660;-51
2022/01/13 00:38:22;;;;;;;46.42;24.13;;;;;;;1.65;100.00;103352.16;835970;23;836;-51
2022/01/13 00:38:43;;;;;;;46.03;23.92;;;;;;;1.63;100.00;103346.88;836289;23;773;-53
2022/01/13 00:39:05;;;;;;;46.73;23.70;;;;;;;1.61;100.00;103350.13;836221;23;781;-52
2022/01/13 00:39:26;;;;;;;46.03;24.67;;;;;;;1.61;100.00;103353.59;836711;23;765;-54
2022/01/13 00:39:47;;;;;;;46.75;25.88;;;;;;;1.64;100.00;103351.25;839833;23;995;-52
2022/01/13 00:40:15;;;;;;;46.70;25.50;;;;;;;1.62;100.00;103351.91;840268;23;883;-52
2022/01/13 00:40:36;;;;;;;45.20;25.08;;;;;;;1.60;100.00;103349.22;838619;23;828;-53
2022/01/13 00:40:57;;;;;;;46.28;25.60;;;;;;;1.59;100.00;103347.41;838409;23;4321;-52
2022/01/13 00:41:19;;;;;;;46.90;26.08;;;;;;;1.58;100.00;103350.81;835717;23;1142;-53
2022/01/13 00:41:42;;;;;;;47.85;25.33;;;;;;;1.57;100.00;103350.69;835721;23;1087;-53
2022/01/13 00:42:02;;;;;;;46.65;25.77;;;;;;;1.55;100.00;103340.22;836055;23;914;-55
2022/01/13 00:42:25;;;;;;;45.85;25.33;;;;;;;1.54;100.00;103351.34;835612;23;693;-56
2022/01/13 00:42:46;;;;;;;44.95;24.63;;;;;;;1.52;100.00;103347.75;834510;23;876;-54
2022/01/13 00:43:06;;;;;;;48.67;25.63;;;;;;;1.51;100.00;103349.44;833038;23;848;-54
2022/01/13 00:43:26;;;;;;;47.27;25.00;;;;;;;1.49;100.00;103350.97;829904;23;841;-52
2022/01/13 00:43:48;;;;;;;47.05;24.58;;;;;;;1.49;100.00;103350.09;832253;23;928;-54
2022/01/13 00:44:09;;;;;;;46.88;24.88;;;;;;;1.48;100.00;103349.22;830158;23;4589;-52
2022/01/13 00:44:35;;;;;;;48.13;25.95;;;;;;;1.46;100.00;103349.88;830634;23;749;-54
2022/01/13 00:44:56;;;;;;;47.38;25.23;;;;;;;1.47;100.00;103349.09;833884;23;869;-57
2022/01/13 00:45:16;;;;;;;46.85;25.63;;;;;;;1.46;100.00;103352.44;836465;23;805;-54
2022/01/13 00:45:37;;;;;;;46.23;25.13;;;;;;;1.46;100.00;103352.44;839354;23;840;-54
2022/01/13 00:45:57;;;;;;;48.00;25.02;;;;;;;1.47;100.00;103349.09;840323;23;895;-52
2022/01/13 00:46:26;;;;;;;49.17;26.33;;;;;;;1.45;100.00;103348.94;839941;23;950;-53
2022/01/13 00:46:54;;;;;;;43.17;24.30;;;;;;;1.45;100.00;103346.38;839800;23;1095;-53
2022/01/13 00:47:14;;;;;;;48.75;25.63;;;;;;;1.46;100.00;103353.34;837914;23;4859;-52
2022/01/13 00:47:36;;;;;;;45.97;25.40;;;;;;;1.46;100.00;103348.19;834235;23;1098;-56
2022/01/13 00:47:57;;;;;;;46.17;25.40;;;;;;;1.46;100.00;103353.34;836288;23;836;-52
2022/01/13 00:48:17;;;;;;;46.60;25.10;;;;;;;1.46;100.00;103348.19;835866;23;737;-53
2022/01/13 00:48:38;;;;;;;47.03;25.00;;;;;;;1.45;100.00;103348.06;834420;23;1723;-55
2022/01/13 00:48:58;;;;;;;46.47;25.88;;;;;;;1.47;100.00;103344.81;832275;23;843;-56
2022/01/13 00:49:19;;;;;;;47.03;25.17;;;;;;;1.46;100.00;103347.28;832806;23;860;-53
2022/01/13 00:49:39;;;;;;;46.05;25.48;;;;;;;1.47;100.00;103351.69;830695;23;1165;-53
2022/01/13 00:50:00;;;;;;;47.30;25.80;;;;;;;1.47;100.00;103351.69;830425;23;4504;-53
2022/01/13 00:50:21;;;;;;;47.55;25.23;;;;;;;1.45;100.00;103351.53;830809;23;1427;-53
2022/01/13 00:50:41;;;;;;;47.38;24.30;;;;;;;1.44;100.00;103357.50;826945;23;1421;-55
2022/01/13 00:51:02;;;;;;;46.20;25.00;;;;;;;1.44;100.00;103354.00;826262;23;1241;-54
2022/01/13 00:51:24;;;;;;;48.50;25.97;;;;;;;1.43;100.00;103352.22;824560;23;1243;-54
2022/01/13 00:51:45;;;;;;;48.53;26.08;;;;;;;1.43;100.00;103347.06;827729;23;919;-55
2022/01/13 00:52:06;;;;;;;45.97;25.08;;;;;;;1.43;100.00;103358.25;828312;23;1947;-56
2022/01/13 00:52:27;;;;;;;45.10;24.52;;;;;;;1.43;100.00;103355.69;828554;23;865;-55
2022/01/13 00:52:47;;;;;;;44.57;25.53;;;;;;;1.41;100.00;103343.47;833175;23;761;-55
2022/01/13 00:53:08;;;;;;;46.30;26.10;;;;;;;1.42;100.00;103350.41;835390;23;4234;-57
2022/01/13 00:53:28;;;;;;;49.45;25.48;;;;;;;1.43;100.00;103350.53;839887;23;920;-55
2022/01/13 00:53:50;;;;;;;47.77;25.77;;;;;;;1.43;100.00;103352.22;834009;23;1201;-53
2022/01/13 00:54:10;;;;;;;51.53;25.85;;;;;;;1.42;100.00;103351.31;836206;23;1007;-52
2022/01/13 00:54:34;;;;;;;47.47;25.33;;;;;;;1.41;100.00;103344.34;835766;23;813;-53
2022/01/13 00:54:56;;;;;;;46.15;25.08;;;;;;;1.43;100.00;103354.81;830526;23;1419;-52
2022/01/13 00:55:22;;;;;;;46.97;25.63;;;;;;;1.42;100.00;103356.47;832024;23;852;-56
2022/01/13 00:55:58;;;;;;;48.28;25.38;;;;;;;1.43;100.00;103352.22;834559;23;880;-56
2022/01/13 00:56:18;;;;;;;44.75;24.50;;;;;;;1.42;100.00;103353.00;834681;23;5695;-53
2022/01/13 00:56:39;;;;;;;45.17;25.42;;;;;;;1.42;100.00;103345.25;836131;23;787;-52
2022/01/13 00:57:00;;;;;;;43.65;25.20;;;;;;;1.41;100.00;103353.78;834589;23;832;-54
2022/01/13 00:57:20;;;;;;;44.80;25.02;;;;;;;1.41;100.00;103348.63;834406;23;1216;-52
2022/01/13 00:57:41;;;;;;;43.50;24.23;;;;;;;1.41;100.00;103344.34;834384;23;803;-55
2022/01/13 00:58:01;;;;;;;42.75;24.90;;;;;;;1.41;100.00;103351.19;835327;23;855;-55
2022/01/13 00:58:22;;;;;;;44.87;25.33;;;;;;;1.41;100.00;103346.91;834290;23;830;-53
2022/01/13 00:58:43;;;;;;;45.00;25.42;;;;;;;1.42;100.00;103347.84;831879;23;782;-52
2022/01/13 00:59:14;;;;;;;44.42;24.75;;;;;;;1.41;100.00;103344.34;830589;23;4299;-54
2022/01/13 00:59:35;;;;;;;44.10;24.90;;;;;;;1.42;100.00;103351.31;834429;23;1320;-53
2022/01/13 00:59:55;;;;;;;47.53;25.48;;;;;;;1.42;100.00;103353.00;835478;23;852;-52
2022/01/13 01:00:16;;;;;;;44.28;24.75;;;;;;;1.42;100.00;103351.31;835957;23;1059;-53
2022/01/13 01:00:37;;;;;;;42.58;24.55;;;;;;;1.43;100.00;103341.91;830120;23;1441;-58
2022/01/13 01:01:01;;;;;;;44.23;25.03;;;;;;;1.42;100.00;103351.31;834437;23;722;-53
2022/01/13 01:01:22;;;;;;;44.50;25.15;;;;;;;1.42;100.00;103347.84;840005;23;899;-56
2022/01/13 01:01:45;;;;;;;48.67;25.67;;;;;;;1.42;100.00;103348.72;840213;23;762;-52
2022/01/13 01:02:06;;;;;;;46.53;25.83;;;;;;;1.41;100.00;103346.91;837307;23;4316;-57
2022/01/13 01:02:27;;;;;;;45.00;25.70;;;;;;;1.41;100.00;103341.78;841733;23;852;-53
2022/01/13 01:02:50;;;;;;;47.42;25.52;;;;;;;1.41;100.00;103343.47;844219;23;807;-53
2022/01/13 01:03:11;;;;;;;48.53;25.38;;;;;;;1.42;100.00;103350.41;842440;23;800;-52
2022/01/13 01:03:33;;;;;;;46.70;25.13;;;;;;;1.41;100.00;103348.63;840014;23;959;-53
2022/01/13 01:03:53;;;;;;;43.63;24.75;;;;;;;1.39;100.00;103345.94;840493;23;693;-53
2022/01/13 01:04:14;;;;;;;44.60;24.43;;;;;;;1.41;100.00;103353.78;840014;23;786;-51
2022/01/13 01:04:35;;;;;;;46.42;25.25;;;;;;;1.40;100.00;103351.97;838522;23;1475;-52
2022/01/13 01:04:55;;;;;;;46.47;25.13;;;;;;;1.40;100.00;103351.97;839262;23;4270;-53
2022/01/13 01:05:16;;;;;;;44.25;24.65;;;;;;;1.41;100.00;103351.19;834209;23;1705;-53
2022/01/13 01:05:37;;;;;;;42.20;24.13;;;;;;;1.40;100.00;103346.81;835140;23;823;-56
2022/01/13 01:05:57;;;;;;;43.20;24.50;;;;;;;1.44;100.00;103348.84;836226;23;806;-54
2022/01/13 01:06:18;;;;;;;41.20;23.85;;;;;;;1.45;100.00;103350.66;835443;23;979;-56
2022/01/13 01:06:39;;;;;;;40.28;23.00;;;;;;;1.44;100.00;103346.25;835640;23;702;-53
2022/01/13 01:06:59;;;;;;;40.97;23.57;;;;;;;1.43;100.00;103352.22;836667;23;769;-58
2022/01/13 01:07:19;;;;;;;41.58;23.58;;;;;;;1.42;100.00;103353.00;840284;23;1054;-53
2022/01/13 01:07:40;;;;;;;41.30;23.53;;;;;;;1.42;100.00;103353.88;840059;23;937;-52
2022/01/13 01:08:02;;;;;;;42.03;24.15;;;;;;;1.39;100.00;103350.19;834074;23;4301;-53
2022/01/13 01:08:24;;;;;;;39.75;23.63;;;;;;;1.36;100.00;103351.75;835209;23;838;-52
2022/01/13 01:08:45;;;;;;;39.95;23.70;;;;;;;1.35;100.00;103349.06;834659;23;864;-53
2022/01/13 01:09:15;;;;;;;39.78;23.38;;;;;;;1.35;100.00;103352.50;836150;23;808;-53
2022/01/13 01:09:40;;;;;;;42.53;23.58;;;;;;;1.39;100.00;103352.78;835850;23;876;-53
2022/01/13 01:10:03;;;;;;;43.33;24.45;;;;;;;1.37;100.00;103347.47;839996;23;1293;-52
2022/01/13 01:10:24;;;;;;;39.45;23.67;;;;;;;1.37;100.00;103357.78;839094;23;974;-55
2022/01/13 01:10:47;;;;;;;42.65;24.17;;;;;;;1.37;100.00;103350.06;835789;23;907;-54
2022/01/13 01:11:08;;;;;;;41.58;23.95;;;;;;;1.38;100.00;103353.53;833624;23;4373;-54
2022/01/13 01:11:28;;;;;;;42.37;24.33;;;;;;;1.36;100.00;103356.00;837973;23;891;-52
2022/01/13 01:11:51;;;;;;;42.40;24.58;;;;;;;1.38;100.00;103356.13;840029;23;749;-53
2022/01/13 01:12:12;;;;;;;42.88;25.10;;;;;;;1.37;100.00;103352.63;839940;23;1948;-55
2022/01/13 01:12:37;;;;;;;44.13;24.30;;;;;;;1.38;100.00;103356.13;837907;23;871;-55
2022/01/13 01:12:58;;;;;;;40.38;23.83;;;;;;;1.41;100.00;103352.06;835754;23;943;-55
2022/01/13 01:13:22;;;;;;;39.92;24.02;;;;;;;1.40;100.00;103346.81;835965;23;1154;-53
2022/01/13 01:13:43;;;;;;;42.47;24.13;;;;;;;1.42;100.00;103346.16;835400;23;935;-52
2022/01/13 01:14:06;;;;;;;42.17;23.48;;;;;;;1.42;100.00;103351.31;834401;23;4410;-56
2022/01/13 01:14:29;;;;;;;42.28;24.00;;;;;;;1.43;100.00;103355.69;835628;23;781;-56
2022/01/13 01:14:55;;;;;;;44.97;24.08;;;;;;;1.42;100.00;103353.00;838068;23;1018;-52
2022/01/13 01:15:16;;;;;;;40.15;23.58;;;;;;;1.42;100.00;103355.56;843028;23;887;-56
2022/01/13 01:15:38;;;;;;;41.45;23.67;;;;;;;1.42;100.00;103351.31;843614;23;824;-53
2022/01/13 01:16:05;;;;;;;43.55;24.27;;;;;;;1.40;100.00;103349.38;841923;23;1969;-55
2022/01/13 01:16:26;;;;;;;42.92;23.20;;;;;;;1.39;100.00;103357.94;843818;23;879;-55
2022/01/13 01:16:47;;;;;;;42.05;23.73;;;;;;;1.38;100.00;103353.53;840530;23;897;-53
2022/01/13 01:17:08;;;;;;;41.53;24.17;;;;;;;1.38;100.00;103354.44;837947;23;4588;-55
2022/01/13 01:17:29;;;;;;;41.60;24.35;;;;;;;1.38;100.00;103353.53;839895;23;968;-52
2022/01/13 01:17:56;;;;;;;42.97;24.13;;;;;;;1.37;100.00;103352.63;834618;23;1464;-52
2022/01/13 01:18:27;;;;;;;43.35;23.85;;;;;;;1.36;100.00;103348.28;831063;23;1564;-53
2022/01/13 01:19:11;;;;;;;44.15;24.92;;;;;;;1.40;100.00;103352.88;832071;23;1053;-54
2022/01/13 01:19:32;;;;;;;41.85;23.42;;;;;;;1.41;100.00;103354.66;830460;23;1757;-52
2022/01/13 01:19:53;;;;;;;39.77;23.40;;;;;;;1.42;100.00;103353.00;834832;23;4382;-54
2022/01/13 01:20:14;;;;;;;40.80;23.73;;;;;;;1.41;100.00;103349.50;839296;23;1142;-54
2022/01/13 01:20:48;;;;;;;40.13;23.15;;;;;;;1.41;100.00;103354.66;834100;23;971;-54
2022/01/13 01:21:46;;;;;;;42.33;24.05;;;;;;;1.41;100.00;103349.50;838222;23;1481;-56
2022/01/13 01:22:36;;;;;;;42.15;24.48;;;;;;;1.42;100.00;103351.31;834410;23;1291;-53
2022/01/13 01:23:03;;;;;;;41.88;23.20;;;;;;;1.39;100.00;103353.66;838376;23;4237;-54
2022/01/13 01:23:26;;;;;;;40.38;23.20;;;;;;;1.39;100.00;103355.34;836139;23;1446;-53
2022/01/13 01:26:03;;;;;;;42.65;23.90;;;;;;;1.39;100.00;103370.81;840054;23;729;-53
2022/01/13 01:26:55;;;;;;;40.70;24.40;;;;;;;1.39;100.00;103361.38;840271;23;982;-54
2022/01/13 01:27:19;;;;;;;41.70;24.02;;;;;;;1.39;100.00;103358.81;839952;23;947;-52
2022/01/13 01:27:45;;;;;;;42.40;23.55;;;;;;;1.40;100.00;103363.19;839717;23;726;-53
2022/01/13 01:28:13;;;;;;;43.00;23.95;;;;;;;1.39;100.00;103360.50;840060;23;884;-56
2022/01/13 01:28:43;;;;;;;43.40;23.50;;;;;;;1.38;100.00;103367.31;839350;23;832;-54
2022/01/13 01:29:20;;;;;;;41.83;23.50;;;;;;;1.39;100.00;103371.69;838606;23;4204;-52
2022/01/13 01:29:50;;;;;;;42.53;24.42;;;;;;;1.39;100.00;103363.09;834933;23;915;-56
2022/01/13 01:30:22;;;;;;;41.82;24.34;;;;;;;1.39;100.00;103363.97;835775;23;1006;-54
2022/01/13 01:30:45;;;;;;;44.92;24.55;;;;;;;1.39;100.00;103360.50;835896;23;952;-55
2022/01/13 01:31:06;;;;;;;43.08;23.70;;;;;;;1.39;100.00;103366.53;835525;23;1293;-54
2022/01/13 01:31:30;;;;;;;44.27;24.50;;;;;;;1.40;100.00;103364.84;836303;23;912;-55
2022/01/13 01:31:53;;;;;;;44.38;24.77;;;;;;;1.40;100.00;103368.34;839546;23;4241;-54
2022/01/13 01:32:16;;;;;;;41.45;24.17;;;;;;;1.39;100.00;103369.13;840325;23;994;-53
2022/01/13 01:32:38;;;;;;;42.85;24.42;;;;;;;1.40;100.00;103367.44;839569;23;875;-56
2022/01/13 01:32:58;;;;;;;41.08;23.50;;;;;;;1.36;100.00;103369.78;839701;23;1042;-53
2022/01/13 01:33:20;;;;;;;39.07;23.13;;;;;;;1.38;100.00;103369.00;839389;23;955;-52
2022/01/13 01:33:48;;;;;;;41.50;23.73;;;;;;;1.41;100.00;103374.41;839442;23;875;-52
2022/01/13 01:34:55;;;;;;;41.85;23.67;;;;;;;1.41;100.00;103374.41;840030;23;998;-56
2022/01/13 01:35:18;;;;;;;41.45;23.40;;;;;;;1.39;100.00;103374.28;834407;23;5109;-52
2022/01/13 01:35:38;;;;;;;39.85;22.85;;;;;;;1.39;100.00;103370.81;835427;23;828;-57
2022/01/13 01:35:58;;;;;;;41.10;23.30;;;;;;;1.38;100.00;103376.75;835667;23;915;-52
2022/01/13 01:36:19;;;;;;;39.70;23.10;;;;;;;1.38;100.00;103372.47;835949;23;780;-55
2022/01/13 01:36:41;;;;;;;42.27;23.80;;;;;;;1.39;100.00;103373.41;835798;23;900;-54
2022/01/13 01:37:02;;;;;;;41.65;23.33;;;;;;;1.40;100.00;103377.75;832472;23;848;-54
2022/01/13 01:37:26;;;;;;;40.75;23.98;;;;;;;1.40;100.00;103372.59;835856;23;860;-52
2022/01/13 01:37:50;;;;;;;39.85;23.67;;;;;;;1.39;100.00;103374.28;835700;23;872;-53
2022/01/13 01:38:10;;;;;;;40.85;23.38;;;;;;;1.40;100.00;103373.50;834603;23;4607;-54
2022/01/13 01:38:32;;;;;;;40.25;23.60;;;;;;;1.41;100.00;103379.53;835716;23;635;-53
2022/01/13 01:38:55;;;;;;;40.83;24.15;;;;;;;1.42;100.00;103376.19;838070;23;926;-54
2022/01/13 01:39:15;;;;;;;40.85;23.95;;;;;;;1.42;100.00;103376.19;839737;23;943;-56
2022/01/13 01:39:36;;;;;;;42.60;23.47;;;;;;;1.49;100.00;103369.03;839326;23;627;-54
2022/01/13 01:39:59;;;;;;;43.58;24.35;;;;;;;1.49;100.00;103370.72;835881;23;749;-54
2022/01/13 01:40:20;;;;;;;41.20;23.77;;;;;;;1.49;100.00;103368.16;836228;23;813;-53
2022/01/13 01:40:40;;;;;;;41.90;23.60;;;;;;;1.47;100.00;103369.72;836067;23;943;-53
2022/01/13 01:41:01;;;;;;;41.50;23.88;;;;;;;1.46;100.00;103373.97;834049;23;4313;-55
2022/01/13 01:41:21;;;;;;;42.60;24.13;;;;;;;1.46;100.00;103367.91;836075;23;887;-54
2022/01/13 01:41:45;;;;;;;43.47;23.93;;;;;;;1.43;100.00;103371.16;835838;23;801;-54
2022/01/13 01:42:05;;;;;;;42.05;24.08;;;;;;;1.43;100.00;103370.28;840088;23;805;-52
2022/01/13 01:42:27;;;;;;;43.15;23.35;;;;;;;1.41;100.00;103370.13;840004;23;804;-52
2022/01/13 01:42:48;;;;;;;40.75;23.48;;;;;;;1.41;100.00;103374.41;838548;23;791;-53
2022/01/13 01:43:08;;;;;;;41.70;23.50;;;;;;;1.41;100.00;103374.41;840460;23;837;-53
2022/01/13 01:43:29;;;;;;;41.95;23.88;;;;;;;1.40;100.00;103373.50;839894;23;792;-55
2022/01/13 01:43:51;;;;;;;40.53;24.08;;;;;;;1.41;100.00;103376.97;838886;23;4232;-55
2022/01/13 01:44:20;;;;;;;39.65;22.77;;;;;;;1.39;100.00;103370.81;840018;23;978;-52
2022/01/13 01:44:44;;;;;;;39.88;23.30;;;;;;;1.40;100.00;103372.59;840381;23;970;-53
2022/01/13 01:45:06;;;;;;;41.10;23.58;;;;;;;1.40;100.00;103377.75;838000;23;912;-55
2022/01/13 01:45:32;;;;;;;41.38;23.73;;;;;;;1.39;100.00;103370.81;839120;23;813;-54
2022/01/13 01:45:54;;;;;;;43.22;23.83;;;;;;;1.40;100.00;103372.59;839738;23;856;-53
2022/01/13 01:46:14;;;;;;;42.90;23.60;;;;;;;1.49;100.00;103368.16;840091;23;903;-53
2022/01/13 01:46:36;;;;;;;41.38;23.38;;;;;;;1.49;100.00;103378.47;839415;23;797;-53
2022/01/13 01:46:58;;;;;;;42.10;23.77;;;;;;;1.47;100.00;103377.47;838836;23;5682;-53
2022/01/13 01:47:19;;;;;;;43.30;24.10;;;;;;;1.44;100.00;103379.78;839871;23;808;-55
2022/01/13 01:47:41;;;;;;;41.25;23.63;;;;;;;1.43;100.00;103372.84;839565;23;792;-53
2022/01/13 01:48:04;;;;;;;41.85;23.90;;;;;;;1.41;100.00;103369.25;833628;23;2003;-55
2022/01/13 01:48:26;;;;;;;41.95;23.65;;;;;;;1.39;100.00;103375.97;835666;23;948;-54
2022/01/13 01:48:46;;;;;;;42.78;24.40;;;;;;;1.39;100.00;103379.44;836413;23;915;-52
2022/01/13 01:49:22;;;;;;;42.33;23.77;;;;;;;1.38;100.00;103381.91;836132;23;897;-53
2022/01/13 01:49:56;;;;;;;41.17;24.50;;;;;;;1.36;100.00;103379.22;836679;23;852;-52
2022/01/13 01:50:20;;;;;;;39.95;23.42;;;;;;;1.36;100.00;103374.94;833884;23;4908;-54
2022/01/13 01:50:40;;;;;;;41.15;23.23;;;;;;;1.36;100.00;103380.09;835548;23;876;-52
2022/01/13 01:51:02;;;;;;;41.63;23.70;;;;;;;1.34;100.00;103379.09;835793;23;940;-53
2022/01/13 01:51:23;;;;;;;42.53;24.45;;;;;;;1.34;100.00;103371.38;834165;23;1366;-55
2022/01/13 01:51:45;;;;;;;42.13;24.30;;;;;;;1.35;100.00;103373.13;835991;23;943;-55
2022/01/13 01:52:07;;;;;;;43.40;24.00;;;;;;;1.35;100.00;103375.72;837078;23;1901;-56
2022/01/13 01:52:28;;;;;;;41.80;23.98;;;;;;;1.35;100.00;103373.13;839428;23;954;-55
2022/01/13 01:52:51;;;;;;;40.65;23.67;;;;;;;1.35;100.00;103375.72;840079;23;795;-53
2022/01/13 01:53:11;;;;;;;40.55;24.17;;;;;;;1.35;100.00;103375.72;834202;23;4646;-53
2022/01/13 01:53:33;;;;;;;43.23;23.80;;;;;;;1.37;100.00;103375.81;831211;23;939;-54
2022/01/13 01:53:53;;;;;;;43.40;23.92;;;;;;;1.48;100.00;103374.06;831448;23;809;-54
2022/01/13 01:54:14;;;;;;;41.07;23.67;;;;;;;1.49;100.00;103378.47;830931;23;860;-52
2022/01/13 01:54:34;;;;;;;40.47;24.13;;;;;;;1.45;100.00;103369.56;830220;23;939;-56
2022/01/13 01:54:55;;;;;;;39.15;24.08;;;;;;;1.56;100.00;103366.94;832049;23;813;-52
2022/01/13 01:55:17;;;;;;;37.93;23.67;;;;;;;1.56;100.00;103374.66;836284;23;889;-55
2022/01/13 01:55:37;;;;;;;38.50;23.35;;;;;;;1.53;100.00;103373.63;839582;23;860;-52
2022/01/13 01:55:58;;;;;;;40.92;23.58;;;;;;;1.52;100.00;103373.53;837310;23;4234;-54
2022/01/13 01:56:18;;;;;;;41.70;23.90;;;;;;;1.49;100.00;103373.31;834185;23;1323;-52
2022/01/13 01:56:40;;;;;;;44.08;24.50;;;;;;;1.48;100.00;103381.81;835894;23;821;-54